Time;durP1;ratioP1;P1;durP2;ratioP2;P2;SDS_P1;SDS_P2;PMS_P1;PMS_P2;Temp;Humidity;BMP_temperature;BMP_pressure;BME280_temperature;BME280_humidity;BME280_pressure;Samples;Min_cycle;Max_cycle;Signal;HPM_P1;HPM_P2
2023/03/14 00:00:53;;;;;;;2.83;1.55;;;13.00;99.90;;;;;;2074639;28;20505;-72
2023/03/14 00:01:54;;;;;;;8.23;2.25;;;13.00;99.90;;;;;;2076348;28;20452;-72
2023/03/14 00:02:54;;;;;;;3.40;1.60;;;13.00;99.90;;;;;;2074090;28;20029;-71
2023/03/14 00:03:55;;;;;;;4.43;2.25;;;13.00;99.90;;;;;;2075947;28;20030;-72
2023/03/14 00:04:56;;;;;;;8.15;2.08;;;13.00;99.90;;;;;;2073802;28;20398;-71
2023/03/14 00:05:56;;;;;;;5.72;2.03;;;13.00;99.90;;;;;;2074237;28;20057;-71
2023/03/14 00:06:57;;;;;;;5.10;1.67;;;13.00;99.90;;;;;;2076193;28;20026;-72
2023/03/14 00:07:57;;;;;;;9.35;2.05;;;13.00;99.90;;;;;;2073278;28;20045;-71
2023/03/14 00:08:58;;;;;;;5.78;1.85;;;13.00;99.90;;;;;;2075218;28;20033;-71
2023/03/14 00:09:58;;;;;;;5.38;1.95;;;12.90;99.90;;;;;;2073635;28;20109;-72
2023/03/14 00:11:08;;;;;;;7.90;2.75;;;12.90;99.90;;;;;;2074910;28;20025;-72
2023/03/14 00:12:09;;;;;;;5.90;2.03;;;13.00;99.90;;;;;;2075836;28;20091;-71
2023/03/14 00:13:09;;;;;;;7.43;2.60;;;12.90;99.90;;;;;;2073860;28;20107;-71
2023/03/14 00:14:10;;;;;;;7.28;1.88;;;12.90;99.90;;;;;;2073484;28;20029;-72
2023/03/14 00:15:11;;;;;;;8.95;2.47;;;12.90;99.90;;;;;;2074675;28;20728;-72
2023/03/14 00:16:12;;;;;;;7.45;2.50;;;12.90;99.90;;;;;;2073759;28;20022;-71
2023/03/14 00:17:13;;;;;;;5.60;1.52;;;12.90;99.90;;;;;;2072980;28;20495;-71
2023/03/14 00:18:14;;;;;;;6.35;1.63;;;12.90;99.90;;;;;;2077903;28;20128;-71
2023/03/14 00:19:14;;;;;;;5.90;1.90;;;12.90;99.90;;;;;;2077338;28;20054;-72
2023/03/14 00:20:15;;;;;;;5.80;2.13;;;12.90;99.90;;;;;;2072593;28;20022;-72
2023/03/14 00:21:15;;;;;;;6.78;2.45;;;12.90;99.90;;;;;;2072730;28;20057;-71
2023/03/14 00:22:16;;;;;;;7.60;1.98;;;12.90;99.90;;;;;;2074598;28;20030;-71
2023/03/14 00:23:16;;;;;;;3.72;2.28;;;12.90;99.90;;;;;;2074692;28;20627;-71
2023/03/14 00:24:17;;;;;;;6.35;2.28;;;12.90;99.90;;;;;;2073229;28;20803;-72
2023/03/14 00:25:18;;;;;;;6.05;1.85;;;12.90;99.90;;;;;;2075770;28;20030;-71
2023/03/14 00:26:21;;;;;;;6.82;2.13;;;12.90;99.90;;;;;;2073941;28;20041;-72
2023/03/14 00:27:21;;;;;;;7.07;2.08;;;12.90;99.90;;;;;;2073404;28;20032;-72
2023/03/14 00:28:22;;;;;;;6.25;2.17;;;12.90;99.90;;;;;;2074482;28;20785;-71
2023/03/14 00:29:22;;;;;;;7.57;1.98;;;12.80;99.90;;;;;;2073452;28;20129;-71
2023/03/14 00:30:23;;;;;;;4.72;1.80;;;12.80;99.90;;;;;;2071563;28;20029;-72
2023/03/14 00:31:24;;;;;;;6.30;2.15;;;12.80;99.90;;;;;;2075051;28;20061;-71
2023/03/14 00:32:24;;;;;;;7.00;2.13;;;12.80;99.90;;;;;;2074626;28;20026;-72
2023/03/14 00:33:25;;;;;;;6.10;2.13;;;12.80;99.90;;;;;;2074251;28;20032;-71
2023/03/14 00:34:29;;;;;;;6.32;2.03;;;12.80;99.90;;;;;;2073558;28;20029;-71
2023/03/14 00:35:30;;;;;;;8.68;2.53;;;12.80;99.90;;;;;;2074328;28;20087;-71
2023/03/14 00:36:30;;;;;;;8.05;2.20;;;12.80;99.90;;;;;;2074559;28;20014;-71
2023/03/14 00:37:31;;;;;;;6.93;1.90;;;12.80;99.90;;;;;;2074559;28;20026;-72
2023/03/14 00:38:32;;;;;;;8.60;2.08;;;12.80;99.90;;;;;;2075382;28;20026;-71
2023/03/14 00:39:33;;;;;;;7.28;2.20;;;12.80;99.90;;;;;;2076405;28;20527;-71
2023/03/14 00:40:33;;;;;;;9.45;2.13;;;12.80;99.90;;;;;;2073734;28;20064;-71
2023/03/14 00:41:34;;;;;;;5.93;2.05;;;12.80;99.90;;;;;;2074021;28;20091;-72
2023/03/14 00:42:35;;;;;;;7.47;2.38;;;12.80;99.90;;;;;;2075950;28;20034;-71
2023/03/14 00:43:36;;;;;;;8.80;2.25;;;12.80;99.90;;;;;;2075408;28;20111;-72
2023/03/14 00:44:37;;;;;;;6.40;2.28;;;12.80;99.90;;;;;;2073382;28;20041;-72
2023/03/14 00:45:37;;;;;;;8.07;2.08;;;12.80;99.90;;;;;;2074557;28;20033;-72
2023/03/14 00:46:37;;;;;;;8.95;1.90;;;12.80;99.90;;;;;;2075280;28;20116;-72
2023/03/14 00:47:38;;;;;;;6.68;1.90;;;12.80;99.90;;;;;;2073451;28;20037;-72
2023/03/14 00:48:39;;;;;;;8.02;1.90;;;12.80;99.90;;;;;;2073358;28;20034;-72
2023/03/14 00:49:40;;;;;;;7.45;2.22;;;12.80;99.90;;;;;;2073420;28;20066;-72
2023/03/14 00:50:40;;;;;;;9.32;2.33;;;12.90;99.90;;;;;;2073546;28;20033;-71
2023/03/14 00:51:41;;;;;;;9.80;2.78;;;12.80;99.90;;;;;;2073323;28;20570;-71
2023/03/14 00:52:41;;;;;;;6.03;2.10;;;12.80;99.90;;;;;;2074116;28;20035;-72
2023/03/14 00:53:42;;;;;;;8.93;2.28;;;12.80;99.90;;;;;;2079107;28;20026;-72
2023/03/14 00:54:43;;;;;;;7.75;2.03;;;12.90;99.90;;;;;;2077259;28;20109;-72
2023/03/14 00:55:44;;;;;;;4.63;2.00;;;12.80;99.90;;;;;;2073492;28;20034;-72
2023/03/14 00:56:45;;;;;;;6.32;2.30;;;12.90;99.90;;;;;;2073720;28;20022;-72
2023/03/14 00:57:45;;;;;;;6.93;2.10;;;12.90;99.90;;;;;;2074232;28;20022;-71
2023/03/14 00:58:46;;;;;;;8.55;2.45;;;12.90;99.90;;;;;;2075769;28;20076;-71
2023/03/14 00:59:46;;;;;;;9.65;2.75;;;12.90;99.90;;;;;;2074650;28;20048;-72
2023/03/14 01:00:47;;;;;;;5.32;2.10;;;12.90;99.90;;;;;;2075587;28;20401;-71
2023/03/14 01:01:47;;;;;;;7.05;2.05;;;12.90;99.90;;;;;;2074641;28;20040;-71
2023/03/14 01:02:48;;;;;;;4.40;1.75;;;12.90;99.90;;;;;;2074818;28;20674;-72
2023/03/14 01:03:53;;;;;;;5.10;1.98;;;12.80;99.90;;;;;;2076690;28;20034;-72
2023/03/14 01:04:53;;;;;;;5.25;1.65;;;12.80;99.90;;;;;;2077038;28;20033;-71
2023/03/14 01:05:54;;;;;;;5.22;1.40;;;12.80;99.90;;;;;;2076775;28;20040;-71
2023/03/14 01:06:54;;;;;;;5.82;1.75;;;12.80;99.90;;;;;;2074581;28;20033;-72
2023/03/14 01:07:55;;;;;;;6.10;1.50;;;12.70;99.90;;;;;;2077324;28;20381;-72
2023/03/14 01:08:56;;;;;;;4.13;1.52;;;12.70;99.90;;;;;;2076680;28;20021;-72
2023/03/14 01:09:57;;;;;;;6.85;1.35;;;12.70;99.90;;;;;;2076018;28;20021;-72
2023/03/14 01:10:57;;;;;;;8.38;1.98;;;12.60;99.90;;;;;;2076858;28;20034;-72
2023/03/14 01:11:58;;;;;;;5.40;1.27;;;12.60;99.90;;;;;;2078849;28;20018;-72
2023/03/14 01:12:58;;;;;;;5.85;1.40;;;12.50;99.90;;;;;;2079822;28;20817;-71
2023/03/14 01:13:59;;;;;;;3.95;1.30;;;12.50;99.90;;;;;;2078808;28;20060;-72
2023/03/14 01:15:00;;;;;;;4.35;1.52;;;12.50;99.90;;;;;;2073858;28;20683;-72
2023/03/14 01:16:06;;;;;;;4.75;1.23;;;12.40;99.90;;;;;;2075746;28;20045;-71
2023/03/14 01:17:06;;;;;;;6.63;1.17;;;12.40;99.90;;;;;;2078199;28;20508;-71
2023/03/14 01:18:07;;;;;;;3.30;1.00;;;12.40;99.90;;;;;;2078264;28;20604;-71
2023/03/14 01:19:07;;;;;;;4.40;1.35;;;12.30;99.90;;;;;;2075566;28;20034;-71
2023/03/14 01:20:11;;;;;;;2.58;1.00;;;12.30;99.90;;;;;;2072894;28;20568;-71
2023/03/14 01:21:18;;;;;;;3.35;0.95;;;12.30;99.90;;;;;;2074879;28;20142;-72
2023/03/14 01:22:21;;;;;;;4.45;1.23;;;12.30;99.90;;;;;;2076378;28;20027;-71
2023/03/14 01:23:21;;;;;;;1.10;0.57;;;12.20;99.90;;;;;;2075711;28;20021;-72
2023/03/14 01:24:22;;;;;;;3.75;1.05;;;12.20;99.90;;;;;;2074951;28;20468;-72
2023/03/14 01:25:22;;;;;;;2.03;0.77;;;12.20;99.90;;;;;;2075236;28;20044;-71
2023/03/14 01:26:25;;;;;;;3.17;0.85;;;12.20;99.90;;;;;;2074837;28;20053;-71
2023/03/14 01:27:25;;;;;;;1.63;0.50;;;12.10;99.90;;;;;;2073705;28;20025;-72
2023/03/14 01:28:26;;;;;;;2.25;0.88;;;12.20;99.90;;;;;;2075150;28;20029;-72
2023/03/14 01:29:26;;;;;;;5.10;1.13;;;12.10;99.90;;;;;;2074370;28;20032;-72
2023/03/14 01:30:27;;;;;;;2.25;0.60;;;12.20;99.90;;;;;;2074430;28;20033;-72
2023/03/14 01:31:27;;;;;;;2.70;0.98;;;12.10;99.90;;;;;;2076203;28;20121;-71
2023/03/14 01:32:28;;;;;;;1.80;0.70;;;12.10;99.90;;;;;;2075679;28;20018;-72
2023/03/14 01:33:28;;;;;;;2.60;1.00;;;12.10;99.90;;;;;;2074786;28;20113;-72
2023/03/14 01:34:29;;;;;;;2.97;0.90;;;12.10;99.90;;;;;;2074999;28;20025;-71
2023/03/14 01:35:29;;;;;;;2.83;0.77;;;12.10;99.90;;;;;;2077481;28;20091;-72
2023/03/14 01:36:30;;;;;;;4.22;0.90;;;12.00;99.90;;;;;;2085474;28;20025;-72
2023/03/14 01:37:31;;;;;;;3.28;0.88;;;12.00;99.90;;;;;;2086048;28;20021;-71
2023/03/14 01:38:32;;;;;;;2.58;0.65;;;12.00;99.90;;;;;;2083675;28;20053;-71
2023/03/14 01:39:33;;;;;;;3.80;1.20;;;12.00;99.90;;;;;;2075940;28;20018;-72
2023/03/14 01:40:40;;;;;;;3.88;1.15;;;12.00;99.90;;;;;;2074635;28;20028;-71
2023/03/14 01:41:41;;;;;;;3.78;0.90;;;11.90;99.90;;;;;;2075377;28;20026;-72
2023/03/14 01:43:04;;;;;;;2.60;1.23;;;11.90;99.90;;;;;;2075441;28;20034;-71
2023/03/14 01:44:08;;;;;;;2.75;0.90;;;11.90;99.90;;;;;;2074871;28;20026;-71
2023/03/14 01:45:57;;;;;;;3.70;1.13;;;11.90;99.90;;;;;;2075776;28;20029;-71
2023/03/14 01:46:57;;;;;;;1.98;0.75;;;11.80;99.90;;;;;;2074213;28;20038;-72
2023/03/14 01:47:58;;;;;;;5.13;1.17;;;11.80;99.90;;;;;;2075445;28;20036;-71
2023/03/14 01:49:22;;;;;;;4.03;1.33;;;11.80;99.90;;;;;;2074755;28;20061;-71
2023/03/14 01:50:23;;;;;;;4.50;1.10;;;11.80;99.90;;;;;;2073928;28;20021;-72
2023/03/14 01:51:54;;;;;;;3.08;1.02;;;11.80;99.90;;;;;;2075064;28;20531;-72
2023/03/14 01:52:55;;;;;;;7.35;1.42;;;11.80;99.90;;;;;;2075961;28;20018;-71
2023/03/14 01:54:06;;;;;;;6.70;1.40;;;11.70;99.90;;;;;;2075831;28;20408;-72
2023/03/14 01:55:14;;;;;;;5.53;1.40;;;11.80;99.90;;;;;;2074833;28;20108;-72
2023/03/14 01:56:18;;;;;;;6.57;1.90;;;11.80;99.90;;;;;;2074980;28;20378;-71
2023/03/14 01:57:45;;;;;;;2.88;1.23;;;11.70;99.90;;;;;;2076106;28;20848;-71
2023/03/14 01:58:50;;;;;;;4.47;1.23;;;11.70;99.90;;;;;;2076968;28;20028;-71
2023/03/14 02:00:11;;;;;;;7.45;1.50;;;11.70;99.90;;;;;;2076832;28;20025;-71
2023/03/14 02:01:11;;;;;;;4.22;1.30;;;11.70;99.90;;;;;;2075132;28;20033;-71
2023/03/14 02:02:14;;;;;;;5.93;1.58;;;11.70;99.90;;;;;;2074346;28;20057;-71
2023/03/14 02:03:17;;;;;;;7.85;1.90;;;11.70;99.90;;;;;;2075189;28;20489;-71
2023/03/14 02:04:19;;;;;;;5.55;1.70;;;11.70;99.90;;;;;;2077041;28;20021;-72
2023/03/14 02:05:24;;;;;;;5.35;1.40;;;11.70;99.90;;;;;;2075578;28;20095;-71
2023/03/14 02:06:34;;;;;;;5.90;1.58;;;11.70;99.90;;;;;;2074557;28;20025;-72
2023/03/14 02:07:53;;;;;;;3.97;1.33;;;11.70;99.90;;;;;;2077515;28;20022;-72
2023/03/14 02:08:54;;;;;;;6.78;1.52;;;11.70;99.90;;;;;;2076741;28;20026;-71
2023/03/14 02:09:56;;;;;;;5.30;1.48;;;11.70;99.90;;;;;;2076114;28;20033;-71
2023/03/14 02:10:57;;;;;;;6.90;1.52;;;11.70;99.90;;;;;;2075935;28;20022;-71
2023/03/14 02:11:58;;;;;;;5.90;1.45;;;11.70;99.90;;;;;;2076911;28;20075;-71
2023/03/14 02:13:01;;;;;;;4.60;1.75;;;11.70;99.90;;;;;;2078545;28;20494;-71
2023/03/14 02:14:03;;;;;;;8.55;1.70;;;11.70;99.90;;;;;;2074912;28;20073;-71
2023/03/14 02:15:05;;;;;;;5.93;1.67;;;11.70;99.90;;;;;;2072736;28;20026;-72
2023/03/14 02:16:06;;;;;;;5.63;1.25;;;11.70;99.90;;;;;;2075763;28;20026;-72
2023/03/14 02:17:07;;;;;;;4.20;1.58;;;11.70;99.90;;;;;;2075560;28;20048;-72
2023/03/14 02:18:09;;;;;;;4.78;1.38;;;11.70;99.90;;;;;;2076704;28;20025;-71
2023/03/14 02:19:12;;;;;;;4.95;1.40;;;11.70;99.90;;;;;;2074138;28;20026;-71
2023/03/14 02:20:24;;;;;;;5.22;1.52;;;11.70;99.90;;;;;;2073106;28;20025;-71
2023/03/14 02:21:43;;;;;;;6.25;1.35;;;11.70;99.90;;;;;;2076327;28;20029;-71
2023/03/14 02:22:46;;;;;;;9.45;1.77;;;11.60;99.90;;;;;;2078044;28;20014;-72
2023/03/14 02:24:16;;;;;;;3.97;1.48;;;11.70;99.90;;;;;;2077934;28;20025;-72
2023/03/14 02:25:40;;;;;;;4.60;1.58;;;11.60;99.90;;;;;;2074350;28;20026;-72
2023/03/14 02:27:01;;;;;;;6.82;1.55;;;11.60;99.90;;;;;;2075900;28;20513;-72
2023/03/14 02:28:02;;;;;;;5.13;1.23;;;11.60;99.90;;;;;;2076702;28;20455;-71
2023/03/14 02:29:02;;;;;;;6.35;1.63;;;11.60;99.90;;;;;;2078941;28;20124;-71
2023/03/14 02:30:08;;;;;;;5.22;1.90;;;11.60;99.90;;;;;;2068391;28;20030;-72
2023/03/14 02:31:10;;;;;;;5.93;1.40;;;11.60;99.90;;;;;;2074806;28;20509;-71
2023/03/14 02:32:12;;;;;;;6.60;1.30;;;11.60;99.90;;;;;;2075926;28;20033;-72
2023/03/14 02:33:20;;;;;;;4.22;1.30;;;11.60;99.90;;;;;;2075488;28;20907;-72
2023/03/14 02:34:21;;;;;;;6.20;1.73;;;11.60;99.90;;;;;;2073982;28;20393;-71
2023/03/14 02:35:43;;;;;;;4.72;1.40;;;11.60;99.90;;;;;;2075155;28;20017;-71
2023/03/14 02:36:44;;;;;;;5.22;1.15;;;11.60;99.90;;;;;;2073998;28;20077;-71
2023/03/14 02:37:48;;;;;;;8.88;1.60;;;11.60;99.90;;;;;;2074844;28;20025;-72
2023/03/14 02:39:13;;;;;;;4.85;1.60;;;11.60;99.90;;;;;;2077250;28;20049;-71
2023/03/14 02:40:14;;;;;;;3.72;1.08;;;11.60;99.90;;;;;;2070393;28;20024;-71
2023/03/14 02:41:15;;;;;;;8.40;1.85;;;11.60;99.90;;;;;;2075165;28;20088;-72
2023/03/14 02:42:16;;;;;;;4.88;1.20;;;11.60;99.90;;;;;;2075222;28;20021;-71
2023/03/14 02:43:17;;;;;;;5.22;1.40;;;11.60;99.90;;;;;;2077106;28;20025;-72
2023/03/14 02:44:17;;;;;;;6.47;1.98;;;11.60;99.90;;;;;;2077178;28;20390;-72
2023/03/14 02:45:18;;;;;;;5.80;1.75;;;11.60;99.90;;;;;;2073735;28;20020;-72
2023/03/14 02:46:21;;;;;;;6.28;1.50;;;11.60;99.90;;;;;;2075006;28;20028;-71
2023/03/14 02:47:27;;;;;;;6.15;1.65;;;11.60;99.90;;;;;;2076110;28;20053;-72
2023/03/14 02:48:36;;;;;;;6.47;1.83;;;11.60;99.90;;;;;;2075434;28;20033;-71
2023/03/14 02:49:37;;;;;;;6.45;1.85;;;11.60;99.90;;;;;;2074922;28;20038;-72
2023/03/14 02:50:38;;;;;;;8.50;1.92;;;11.60;99.90;;;;;;2072950;28;20058;-72
2023/03/14 02:51:41;;;;;;;6.57;1.88;;;11.60;99.90;;;;;;2074044;28;20033;-72
2023/03/14 02:52:42;;;;;;;7.65;1.88;;;11.60;99.90;;;;;;2075968;28;20124;-71
2023/03/14 02:53:42;;;;;;;6.07;1.77;;;11.60;99.90;;;;;;2074328;28;20553;-71
2023/03/14 02:54:43;;;;;;;6.45;1.58;;;11.60;99.90;;;;;;2073508;28;20490;-72
2023/03/14 02:55:48;;;;;;;4.32;1.58;;;11.60;99.90;;;;;;2075299;28;20025;-71
2023/03/14 02:56:48;;;;;;;5.85;1.80;;;11.60;99.90;;;;;;2074838;28;20136;-72
2023/03/14 02:57:50;;;;;;;6.93;1.60;;;11.60;99.90;;;;;;2074778;28;20155;-72
2023/03/14 02:58:50;;;;;;;7.63;1.52;;;11.60;99.90;;;;;;2075998;28;20132;-71
2023/03/14 02:59:51;;;;;;;7.45;2.03;;;11.60;99.90;;;;;;2073075;28;20037;-72
2023/03/14 03:00:51;;;;;;;4.88;1.42;;;11.60;99.90;;;;;;2075411;28;20378;-72
2023/03/14 03:01:52;;;;;;;7.18;1.58;;;11.60;99.90;;;;;;2073319;28;20022;-72
2023/03/14 03:02:53;;;;;;;6.15;1.83;;;11.60;99.90;;;;;;2076375;28;20568;-71
2023/03/14 03:03:54;;;;;;;4.93;1.60;;;11.60;99.90;;;;;;2075697;28;20048;-71
2023/03/14 03:04:54;;;;;;;7.35;1.75;;;11.60;99.90;;;;;;2073098;28;20030;-72
2023/03/14 03:05:56;;;;;;;9.65;1.85;;;11.60;99.90;;;;;;2074175;28;20068;-72
2023/03/14 03:06:56;;;;;;;7.95;1.90;;;11.60;99.90;;;;;;2074303;28;20056;-72
2023/03/14 03:07:57;;;;;;;8.48;2.03;;;11.60;99.90;;;;;;2076130;28;20058;-72
2023/03/14 03:08:57;;;;;;;5.60;1.60;;;11.60;99.90;;;;;;2077549;28;20040;-72
2023/03/14 03:09:58;;;;;;;8.32;1.75;;;11.60;99.90;;;;;;2075503;28;20035;-72
2023/03/14 03:10:58;;;;;;;7.32;1.88;;;11.60;99.90;;;;;;2073270;28;20013;-72
2023/03/14 03:11:59;;;;;;;6.30;1.90;;;11.60;99.90;;;;;;2075488;28;20065;-72
2023/03/14 03:13:00;;;;;;;9.88;2.65;;;11.60;99.90;;;;;;2073669;28;20029;-72
2023/03/14 03:14:00;;;;;;;7.57;1.73;;;11.60;99.90;;;;;;2074080;28;20037;-71
2023/03/14 03:15:01;;;;;;;8.80;2.13;;;11.60;99.90;;;;;;2075186;28;20622;-71
2023/03/14 03:16:02;;;;;;;8.88;1.73;;;11.60;99.90;;;;;;2074791;28;21060;-71
2023/03/14 03:17:04;;;;;;;6.10;1.95;;;11.60;99.90;;;;;;2074147;28;20034;-71
2023/03/14 03:18:04;;;;;;;6.35;1.85;;;11.60;99.90;;;;;;2073243;28;20083;-72
2023/03/14 03:19:05;;;;;;;7.20;1.92;;;11.60;99.90;;;;;;2075816;28;20089;-72
2023/03/14 03:20:08;;;;;;;5.07;1.40;;;11.60;99.90;;;;;;2073580;28;20079;-72
2023/03/14 03:21:09;;;;;;;6.03;2.05;;;11.60;99.90;;;;;;2073209;28;20509;-72
2023/03/14 03:22:09;;;;;;;8.00;1.58;;;11.50;99.90;;;;;;2074380;28;20029;-72
2023/03/14 03:23:10;;;;;;;8.27;1.90;;;11.60;99.90;;;;;;2073181;28;20034;-71
2023/03/14 03:24:11;;;;;;;11.68;2.38;;;11.60;99.90;;;;;;2075499;28;20456;-71
2023/03/14 03:25:11;;;;;;;8.15;2.00;;;11.60;99.90;;;;;;2074117;28;20385;-71
2023/03/14 03:26:12;;;;;;;6.88;2.15;;;11.50;99.90;;;;;;2073554;28;20110;-72
2023/03/14 03:27:12;;;;;;;9.55;2.22;;;11.50;99.90;;;;;;2073979;28;20033;-72
2023/03/14 03:28:13;;;;;;;8.57;2.22;;;11.50;99.90;;;;;;2074554;28;20109;-72
2023/03/14 03:29:13;;;;;;;5.40;1.60;;;11.50;99.90;;;;;;2073678;28;20029;-72
2023/03/14 03:30:14;;;;;;;6.32;1.83;;;11.50;99.90;;;;;;2073703;28;20033;-71
2023/03/14 03:31:14;;;;;;;10.18;2.35;;;11.50;99.90;;;;;;2073613;28;20034;-71
2023/03/14 03:32:15;;;;;;;7.15;2.10;;;11.50;99.90;;;;;;2073884;28;20522;-72
2023/03/14 03:33:16;;;;;;;7.35;1.95;;;11.50;99.90;;;;;;2074350;28;20021;-72
2023/03/14 03:34:16;;;;;;;7.70;2.67;;;11.50;99.90;;;;;;2074564;28;20512;-72
2023/03/14 03:35:17;;;;;;;7.72;2.40;;;11.50;99.90;;;;;;2073446;28;20048;-72
2023/03/14 03:36:25;;;;;;;6.53;1.90;;;11.50;99.90;;;;;;2076124;28;20429;-72
2023/03/14 03:37:25;;;;;;;5.68;1.83;;;11.50;99.90;;;;;;2074429;28;20029;-71
2023/03/14 03:38:26;;;;;;;4.95;1.52;;;11.40;99.90;;;;;;2073946;28;20026;-71
2023/03/14 03:39:26;;;;;;;9.00;2.30;;;11.50;99.90;;;;;;2074416;28;20164;-71
2023/03/14 03:40:27;;;;;;;8.02;1.60;;;11.40;99.90;;;;;;2074253;28;20087;-71
2023/03/14 03:41:27;;;;;;;7.10;2.30;;;11.40;99.90;;;;;;2072493;28;20124;-71
2023/03/14 03:42:28;;;;;;;4.65;1.75;;;11.40;99.90;;;;;;2074627;28;20021;-71
2023/03/14 03:43:28;;;;;;;4.55;1.73;;;11.40;99.90;;;;;;2073807;28;20628;-72
2023/03/14 03:44:29;;;;;;;10.88;1.95;;;11.40;99.90;;;;;;2073864;28;20040;-71
2023/03/14 03:45:30;;;;;;;6.22;1.90;;;11.40;99.90;;;;;;2073609;28;20041;-71
2023/03/14 03:46:30;;;;;;;8.55;1.80;;;11.40;99.90;;;;;;2077295;28;20152;-71
2023/03/14 03:47:31;;;;;;;5.80;1.90;;;11.40;99.90;;;;;;2076689;28;20056;-71
2023/03/14 03:48:32;;;;;;;7.53;2.10;;;11.50;99.90;;;;;;2075700;28;20151;-71
2023/03/14 03:49:33;;;;;;;7.55;2.15;;;11.40;99.90;;;;;;2074578;28;20045;-71
2023/03/14 03:50:33;;;;;;;10.23;2.33;;;11.50;99.90;;;;;;2080437;28;20021;-71
2023/03/14 03:51:34;;;;;;;9.25;2.40;;;11.40;99.90;;;;;;2080641;28;20414;-71
2023/03/14 03:52:34;;;;;;;8.25;2.42;;;11.50;99.90;;;;;;2081782;28;20033;-72
2023/03/14 03:53:35;;;;;;;7.65;2.00;;;11.40;99.90;;;;;;2082544;28;20127;-71
2023/03/14 03:54:36;;;;;;;7.25;2.00;;;11.40;99.90;;;;;;2075566;28;20084;-71
2023/03/14 03:55:36;;;;;;;5.00;1.83;;;11.40;99.90;;;;;;2074274;28;20039;-71
2023/03/14 03:56:37;;;;;;;9.55;2.72;;;11.40;99.90;;;;;;2074504;28;20026;-72
2023/03/14 03:57:37;;;;;;;6.70;2.05;;;11.50;99.90;;;;;;2074450;28;20026;-71
2023/03/14 03:58:38;;;;;;;7.47;1.80;;;11.40;99.90;;;;;;2074028;28;20113;-72
2023/03/14 03:59:40;;;;;;;10.73;2.25;;;11.40;99.90;;;;;;2075034;28;20029;-71
2023/03/14 04:00:41;;;;;;;7.65;2.05;;;11.40;99.90;;;;;;2075141;28;20386;-72
2023/03/14 04:01:42;;;;;;;8.60;2.10;;;11.50;99.90;;;;;;2073976;28;20057;-72
2023/03/14 04:02:42;;;;;;;7.18;2.03;;;11.50;99.90;;;;;;2074589;28;20057;-72
2023/03/14 04:03:43;;;;;;;8.55;2.10;;;11.50;99.90;;;;;;2073583;28;20065;-71
2023/03/14 04:04:43;;;;;;;10.02;2.10;;;11.50;99.90;;;;;;2073318;28;20040;-71
2023/03/14 04:05:44;;;;;;;6.53;2.15;;;11.50;99.90;;;;;;2073750;28;20029;-71
2023/03/14 04:06:44;;;;;;;7.85;2.10;;;11.50;99.90;;;;;;2075024;28;20029;-71
2023/03/14 04:07:45;;;;;;;11.30;2.40;;;11.50;99.90;;;;;;2077799;28;20033;-71
2023/03/14 04:08:45;;;;;;;7.10;2.00;;;11.50;99.90;;;;;;2075921;28;20112;-72
2023/03/14 04:09:46;;;;;;;8.88;2.40;;;11.50;99.90;;;;;;2075306;28;20030;-71
2023/03/14 04:10:46;;;;;;;8.23;2.35;;;11.50;99.90;;;;;;2075834;28;20108;-71
2023/03/14 04:11:47;;;;;;;9.00;2.13;;;11.50;99.90;;;;;;2076186;28;20101;-72
2023/03/14 04:12:47;;;;;;;7.35;2.10;;;11.50;99.90;;;;;;2076154;28;20022;-71
2023/03/14 04:13:48;;;;;;;5.35;2.13;;;11.50;99.90;;;;;;2075487;28;20029;-71
2023/03/14 04:14:48;;;;;;;7.07;2.00;;;11.50;99.90;;;;;;2073824;28;20112;-71
2023/03/14 04:15:50;;;;;;;5.68;1.75;;;11.50;99.90;;;;;;2075848;28;20040;-72
2023/03/14 04:16:50;;;;;;;7.00;1.90;;;11.50;99.90;;;;;;2075333;28;20486;-71
2023/03/14 04:17:51;;;;;;;7.97;1.88;;;11.50;99.90;;;;;;2074649;28;20456;-72
2023/03/14 04:18:51;;;;;;;6.32;1.90;;;11.50;99.90;;;;;;2074478;28;20490;-72
2023/03/14 04:19:53;;;;;;;6.43;1.80;;;11.40;99.90;;;;;;2074300;28;20033;-72
2023/03/14 04:20:55;;;;;;;4.40;1.27;;;11.40;99.90;;;;;;2074827;28;20028;-72
2023/03/14 04:21:55;;;;;;;5.80;2.10;;;11.40;99.90;;;;;;2072516;28;20022;-71
2023/03/14 04:22:56;;;;;;;6.03;2.00;;;11.40;99.90;;;;;;2074505;28;20090;-71
2023/03/14 04:23:56;;;;;;;6.55;1.67;;;11.40;99.90;;;;;;2074903;28;20034;-71
2023/03/14 04:24:57;;;;;;;3.70;1.85;;;11.40;99.90;;;;;;2075354;28;20026;-72
2023/03/14 04:25:57;;;;;;;6.03;1.30;;;11.40;99.90;;;;;;2074892;28;20069;-71
2023/03/14 04:26:58;;;;;;;4.30;1.33;;;11.40;99.90;;;;;;2074075;28;20022;-71
2023/03/14 04:27:58;;;;;;;7.13;2.00;;;11.40;99.90;;;;;;2073428;28;20038;-72
2023/03/14 04:28:59;;;;;;;6.65;1.80;;;11.30;99.90;;;;;;2075145;28;20156;-71
2023/03/14 04:29:59;;;;;;;4.72;1.25;;;11.40;99.90;;;;;;2075045;28;20034;-72
2023/03/14 04:31:07;;;;;;;7.38;1.80;;;11.40;99.90;;;;;;2074129;28;20417;-72
2023/03/14 04:32:08;;;;;;;6.57;1.60;;;11.30;99.90;;;;;;2077866;28;20083;-71
2023/03/14 04:33:08;;;;;;;5.97;1.63;;;11.30;99.90;;;;;;2074437;28;20018;-72
2023/03/14 04:34:09;;;;;;;3.92;1.25;;;11.30;99.90;;;;;;2078795;28;20087;-72
2023/03/14 04:35:09;;;;;;;4.80;1.20;;;11.30;99.90;;;;;;2078281;28;20065;-72
2023/03/14 04:36:10;;;;;;;7.15;1.77;;;11.30;99.90;;;;;;2074884;28;20065;-72
2023/03/14 04:37:11;;;;;;;4.20;1.35;;;11.30;99.90;;;;;;2083497;28;20928;-72
2023/03/14 04:38:12;;;;;;;3.42;1.10;;;11.30;99.90;;;;;;2081338;28;20026;-71
2023/03/14 04:39:13;;;;;;;3.83;1.10;;;11.40;99.90;;;;;;2076131;28;20021;-72
2023/03/14 04:40:13;;;;;;;4.43;1.77;;;11.30;99.90;;;;;;2068905;28;20154;-71
2023/03/14 04:41:14;;;;;;;4.32;1.13;;;11.30;99.90;;;;;;2075900;28;20032;-71
2023/03/14 04:42:14;;;;;;;3.28;1.20;;;11.30;99.90;;;;;;2076152;28;20036;-72
2023/03/14 04:43:15;;;;;;;4.35;1.05;;;11.30;99.90;;;;;;2075667;28;20461;-71
2023/03/14 04:44:15;;;;;;;3.60;1.05;;;11.30;99.90;;;;;;2076696;28;20100;-72
2023/03/14 04:45:16;;;;;;;1.88;0.82;;;11.30;99.90;;;;;;2077235;28;20026;-72
2023/03/14 04:46:16;;;;;;;2.83;0.73;;;11.20;99.90;;;;;;2074916;28;20096;-72
2023/03/14 04:47:17;;;;;;;2.38;0.75;;;11.30;99.90;;;;;;2076034;28;20026;-71
2023/03/14 04:48:17;;;;;;;5.85;0.57;;;11.20;99.90;;;;;;2074727;28;20021;-72
2023/03/14 04:49:18;;;;;;;2.30;0.50;;;11.20;99.90;;;;;;2074141;28;20030;-71
2023/03/14 04:50:19;;;;;;;1.30;0.43;;;11.20;99.90;;;;;;2076492;28;20021;-71
2023/03/14 04:51:22;;;;;;;3.10;0.73;;;11.20;99.90;;;;;;2074431;28;20126;-72
2023/03/14 04:52:23;;;;;;;3.17;0.73;;;11.20;99.90;;;;;;2078959;28;20068;-72
2023/03/14 04:53:23;;;;;;;4.28;0.88;;;11.10;99.90;;;;;;2070779;28;20021;-71
2023/03/14 04:54:24;;;;;;;1.05;0.40;;;11.10;99.90;;;;;;2076607;28;20018;-72
2023/03/14 04:55:24;;;;;;;3.05;0.70;;;11.10;99.90;;;;;;2076257;28;20035;-71
2023/03/14 04:56:26;;;;;;;2.97;0.73;;;11.10;99.90;;;;;;2076147;28;20486;-71
2023/03/14 04:57:26;;;;;;;3.17;1.08;;;11.10;99.90;;;;;;2076338;28;20025;-71
2023/03/14 04:58:27;;;;;;;2.50;0.80;;;11.10;99.90;;;;;;2077496;28;20045;-71
2023/03/14 04:59:27;;;;;;;0.93;0.63;;;11.10;99.90;;;;;;2075896;28;20474;-71
2023/03/14 05:00:28;;;;;;;3.45;0.65;;;11.10;99.90;;;;;;2075020;28;20071;-71
2023/03/14 05:01:28;;;;;;;3.05;0.80;;;11.10;99.90;;;;;;2076993;28;20084;-71
2023/03/14 05:02:29;;;;;;;2.13;0.70;;;11.10;99.90;;;;;;2075613;28;20057;-72
2023/03/14 05:03:29;;;;;;;1.00;0.47;;;11.10;99.90;;;;;;2075867;28;20026;-71
2023/03/14 05:04:32;;;;;;;2.70;0.85;;;11.10;99.90;;;;;;2074117;28;20032;-71
2023/03/14 05:05:33;;;;;;;1.25;0.60;;;11.10;99.90;;;;;;2076669;28;20021;-72
2023/03/14 05:06:34;;;;;;;2.42;0.77;;;11.10;99.90;;;;;;2074141;28;20545;-71
2023/03/14 05:07:35;;;;;;;1.65;0.68;;;11.10;99.90;;;;;;2075951;28;20500;-72
2023/03/14 05:08:35;;;;;;;3.08;0.77;;;11.00;99.90;;;;;;2074263;28;20884;-71
2023/03/14 05:09:36;;;;;;;1.60;0.63;;;11.00;99.90;;;;;;2074686;28;20052;-71
2023/03/14 05:10:37;;;;;;;3.25;0.70;;;11.00;99.90;;;;;;2074321;28;20494;-72
2023/03/14 05:11:37;;;;;;;2.78;0.60;;;11.00;99.90;;;;;;2076357;28;20037;-72
2023/03/14 05:12:38;;;;;;;0.80;0.43;;;11.00;99.90;;;;;;2076613;28;20460;-71
2023/03/14 05:13:39;;;;;;;1.88;0.73;;;11.00;99.90;;;;;;2075565;28;20026;-72
2023/03/14 05:14:39;;;;;;;2.20;0.70;;;11.00;99.90;;;;;;2075812;28;20040;-71
2023/03/14 05:15:40;;;;;;;1.67;0.57;;;11.00;99.90;;;;;;2076245;28;20171;-71
2023/03/14 05:16:40;;;;;;;1.05;0.45;;;10.90;99.90;;;;;;2077392;28;20032;-71
2023/03/14 05:17:41;;;;;;;0.70;0.35;;;10.90;99.90;;;;;;2078941;28;20105;-71
2023/03/14 05:18:41;;;;;;;1.02;0.55;;;10.90;99.90;;;;;;2075812;28;20814;-71
2023/03/14 05:19:42;;;;;;;1.23;0.50;;;10.90;99.90;;;;;;2075235;28;20030;-71
2023/03/14 05:20:43;;;;;;;2.17;0.60;;;10.90;99.90;;;;;;2073946;28;20041;-72
2023/03/14 05:21:43;;;;;;;0.32;0.30;;;10.90;99.90;;;;;;2078222;28;20559;-71
2023/03/14 05:22:44;;;;;;;1.63;0.40;;;10.90;99.90;;;;;;2078277;28;20517;-71
2023/03/14 05:23:44;;;;;;;1.38;0.60;;;10.90;99.90;;;;;;2074829;28;20032;-72